sensor_id;sensor_type;location;lat;lon;timestamp;pressure;altitude;pressure_sealevel;temperature;humidity
5966;BME280;3009;43.224;27.976;2023-07-31T00:01:36;99849.63;;;20.62;100.00
5966;BME280;3009;43.224;27.976;2023-07-31T00:04:04;99848.44;;;20.63;100.00
5966;BME280;3009;43.224;27.976;2023-07-31T00:06:33;99846.91;;;20.62;100.00
5966;BME280;3009;43.224;27.976;2023-07-31T00:09:02;99850.75;;;20.58;100.00
5966;BME280;3009;43.224;27.976;2023-07-31T00:11:30;99846.88;;;20.59;100.00
5966;BME280;3009;43.224;27.976;2023-07-31T00:14:00;99841.44;;;20.55;100.00
5966;BME280;3009;43.224;27.976;2023-07-31T00:16:28;99845.31;;;20.54;100.00
5966;BME280;3009;43.224;27.976;2023-07-31T00:18:57;99839.88;;;20.54;100.00
5966;BME280;3009;43.224;27.976;2023-07-31T00:21:25;99851.94;;;20.53;100.00
5966;BME280;3009;43.224;27.976;2023-07-31T00:23:54;99850.00;;;20.53;100.00
5966;BME280;3009;43.224;27.976;2023-07-31T00:26:22;99860.88;;;20.50;100.00
5966;BME280;3009;43.224;27.976;2023-07-31T00:28:51;99853.47;;;20.47;100.00
5966;BME280;3009;43.224;27.976;2023-07-31T00:31:20;99853.88;;;20.49;100.00
5966;BME280;3009;43.224;27.976;2023-07-31T00:33:49;99863.22;;;20.48;100.00
5966;BME280;3009;43.224;27.976;2023-07-31T00:36:17;99851.16;;;20.52;100.00
5966;BME280;3009;43.224;27.976;2023-07-31T00:38:46;99850.78;;;20.50;100.00
5966;BME280;3009;43.224;27.976;2023-07-31T00:41:14;99849.97;;;20.50;100.00
5966;BME280;3009;43.224;27.976;2023-07-31T00:43:43;99849.97;;;20.50;100.00
5966;BME280;3009;43.224;27.976;2023-07-31T00:46:11;99847.66;;;20.45;100.00
5966;BME280;3009;43.224;27.976;2023-07-31T00:48:41;99843.00;;;20.42;100.00
5966;BME280;3009;43.224;27.976;2023-07-31T00:51:10;99839.09;;;20.43;100.00
5966;BME280;3009;43.224;27.976;2023-07-31T00:53:40;99839.88;;;20.40;100.00
5966;BME280;3009;43.224;27.976;2023-07-31T00:56:11;99845.31;;;20.43;100.00
5966;BME280;3009;43.224;27.976;2023-07-31T00:58:39;99852.72;;;20.46;100.00
5966;BME280;3009;43.224;27.976;2023-07-31T01:01:07;99852.34;;;20.44;100.00
5966;BME280;3009;43.224;27.976;2023-07-31T01:03:36;99853.13;;;20.41;100.00
5966;BME280;3009;43.224;27.976;2023-07-31T01:06:14;99849.59;;;20.41;100.00
5966;BME280;3009;43.224;27.976;2023-07-31T01:08:49;99848.03;;;20.32;100.00
5966;BME280;3009;43.224;27.976;2023-07-31T01:11:29;99857.75;;;20.37;100.00
5966;BME280;3009;43.224;27.976;2023-07-31T01:13:58;99845.28;;;20.29;100.00
5966;BME280;3009;43.224;27.976;2023-07-31T01:16:27;99842.56;;;20.25;100.00
5966;BME280;3009;43.224;27.976;2023-07-31T01:18:55;99840.63;;;20.22;100.00
5966;BME280;3009;43.224;27.976;2023-07-31T01:21:44;99848.03;;;20.22;100.00
5966;BME280;3009;43.224;27.976;2023-07-31T01:24:23;99847.22;;;20.21;100.00
5966;BME280;3009;43.224;27.976;2023-07-31T01:26:56;99853.09;;;20.23;100.00
5966;BME280;3009;43.224;27.976;2023-07-31T01:29:34;99852.69;;;20.17;100.00
5966;BME280;3009;43.224;27.976;2023-07-31T01:32:06;99858.09;;;20.14;100.00
5966;BME280;3009;43.224;27.976;2023-07-31T01:34:36;99850.31;;;20.12;100.00
5966;BME280;3009;43.224;27.976;2023-07-31T01:37:05;99858.13;;;20.17;100.00
5966;BME280;3009;43.224;27.976;2023-07-31T01:39:33;99857.31;;;20.13;100.00
5966;BME280;3009;43.224;27.976;2023-07-31T01:42:04;99861.63;;;20.14;100.00
5966;BME280;3009;43.224;27.976;2023-07-31T01:44:32;99874.84;;;20.16;100.00
5966;BME280;3009;43.224;27.976;2023-07-31T01:47:01;99878.72;;;20.15;100.00
5966;BME280;3009;43.224;27.976;2023-07-31T01:49:29;99876.41;;;20.17;100.00
5966;BME280;3009;43.224;27.976;2023-07-31T01:51:58;99877.19;;;20.17;100.00
5966;BME280;3009;43.224;27.976;2023-07-31T01:54:27;99872.47;;;20.11;100.00
5966;BME280;3009;43.224;27.976;2023-07-31T01:56:55;99871.72;;;20.10;100.00
5966;BME280;3009;43.224;27.976;2023-07-31T01:59:25;99878.72;;;20.11;100.00
5966;BME280;3009;43.224;27.976;2023-07-31T02:01:54;99871.69;;;20.14;100.00
5966;BME280;3009;43.224;27.976;2023-07-31T02:04:22;99867.44;;;20.13;100.00
5966;BME280;3009;43.224;27.976;2023-07-31T02:06:51;99868.22;;;20.10;100.00
5966;BME280;3009;43.224;27.976;2023-07-31T02:09:19;99869.75;;;20.07;100.00
5966;BME280;3009;43.224;27.976;2023-07-31T02:11:47;99870.16;;;20.13;100.00
5966;BME280;3009;43.224;27.976;2023-07-31T02:14:16;99880.25;;;20.09;100.00
5966;BME280;3009;43.224;27.976;2023-07-31T02:16:46;99876.34;;;20.06;100.00
5966;BME280;3009;43.224;27.976;2023-07-31T02:19:14;99881.41;;;20.00;100.00
5966;BME280;3009;43.224;27.976;2023-07-31T02:21:43;99885.66;;;20.01;100.00
5966;BME280;3009;43.224;27.976;2023-07-31T02:24:11;99887.19;;;19.85;100.00
5966;BME280;3009;43.224;27.976;2023-07-31T02:26:39;99887.16;;;19.81;100.00
5966;BME280;3009;43.224;27.976;2023-07-31T02:29:09;99883.63;;;19.77;100.00
5966;BME280;3009;43.224;27.976;2023-07-31T02:31:37;99887.50;;;19.76;100.00
5966;BME280;3009;43.224;27.976;2023-07-31T02:34:08;99888.66;;;19.75;100.00
5966;BME280;3009;43.224;27.976;2023-07-31T02:36:36;99894.03;;;19.64;100.00
5966;BME280;3009;43.224;27.976;2023-07-31T02:39:05;99897.50;;;19.57;100.00
5966;BME280;3009;43.224;27.976;2023-07-31T02:41:34;99889.34;;;19.57;100.00
5966;BME280;3009;43.224;27.976;2023-07-31T02:44:02;99890.13;;;19.54;100.00
5966;BME280;3009;43.224;27.976;2023-07-31T02:46:32;99897.50;;;19.57;100.00
5966;BME280;3009;43.224;27.976;2023-07-31T02:49:00;99906.06;;;19.56;100.00
5966;BME280;3009;43.224;27.976;2023-07-31T02:51:30;99911.03;;;19.43;100.00
5966;BME280;3009;43.224;27.976;2023-07-31T02:53:58;99904.81;;;19.39;100.00
5966;BME280;3009;43.224;27.976;2023-07-31T02:56:27;99891.91;;;19.28;100.00
5966;BME280;3009;43.224;27.976;2023-07-31T02:58:55;99890.72;;;19.22;100.00
5966;BME280;3009;43.224;27.976;2023-07-31T03:01:23;99891.53;;;19.26;100.00
5966;BME280;3009;43.224;27.976;2023-07-31T03:03:52;99892.25;;;19.23;100.00
5966;BME280;3009;43.224;27.976;2023-07-31T03:06:20;99889.19;;;19.28;100.00
5966;BME280;3009;43.224;27.976;2023-07-31T03:08:50;99889.28;;;19.43;100.00
5966;BME280;3009;43.224;27.976;2023-07-31T03:11:19;99897.91;;;19.56;100.00
5966;BME280;3009;43.224;27.976;2023-07-31T03:13:47;99894.06;;;19.71;100.00
5966;BME280;3009;43.224;27.976;2023-07-31T03:16:16;99900.34;;;19.79;100.00
5966;BME280;3009;43.224;27.976;2023-07-31T03:18:44;99898.09;;;19.92;100.00
5966;BME280;3009;43.224;27.976;2023-07-31T03:21:14;99890.38;;;20.15;100.00
5966;BME280;3009;43.224;27.976;2023-07-31T03:23:43;99878.06;;;20.79;100.00
5966;BME280;3009;43.224;27.976;2023-07-31T03:26:13;99875.16;;;21.69;100.00
5966;BME280;3009;43.224;27.976;2023-07-31T03:28:41;99858.28;;;22.59;100.00
5966;BME280;3009;43.224;27.976;2023-07-31T03:31:09;99861.03;;;23.01;100.00
5966;BME280;3009;43.224;27.976;2023-07-31T03:33:38;99849.97;;;23.19;100.00
5966;BME280;3009;43.224;27.976;2023-07-31T03:36:07;99856.88;;;22.86;100.00
5966;BME280;3009;43.224;27.976;2023-07-31T03:38:35;99856.38;;;22.53;100.00
5966;BME280;3009;43.224;27.976;2023-07-31T03:41:04;99850.09;;;21.96;100.00
5966;BME280;3009;43.224;27.976;2023-07-31T03:43:34;99869.84;;;22.15;100.00
5966;BME280;3009;43.224;27.976;2023-07-31T03:46:03;99854.47;;;22.95;100.00
5966;BME280;3009;43.224;27.976;2023-07-31T03:48:31;99839.66;;;24.23;100.00
5966;BME280;3009;43.224;27.976;2023-07-31T03:51:00;99838.28;;;25.06;100.00
5966;BME280;3009;43.224;27.976;2023-07-31T03:53:28;99838.75;;;25.24;100.00
5966;BME280;3009;43.224;27.976;2023-07-31T03:55:57;99839.06;;;24.63;100.00
5966;BME280;3009;43.224;27.976;2023-07-31T03:58:25;99836.91;;;23.96;100.00
5966;BME280;3009;43.224;27.976;2023-07-31T04:00:55;99844.34;;;23.64;100.00
5966;BME280;3009;43.224;27.976;2023-07-31T04:03:24;99850.34;;;23.52;100.00
5966;BME280;3009;43.224;27.976;2023-07-31T04:05:54;99845.63;;;23.22;100.00
5966;BME280;3009;43.224;27.976;2023-07-31T04:08:23;99848.72;;;23.24;100.00
5966;BME280;3009;43.224;27.976;2023-07-31T04:10:51;99847.44;;;23.66;100.00
5966;BME280;3009;43.224;27.976;2023-07-31T04:13:22;99846.78;;;23.59;100.00
5966;BME280;3009;43.224;27.976;2023-07-31T04:15:50;99845.44;;;24.29;100.00
5966;BME280;3009;43.224;27.976;2023-07-31T04:18:20;99836.38;;;25.46;100.00
5966;BME280;3009;43.224;27.976;2023-07-31T04:20:49;99836.28;;;26.07;100.00
5966;BME280;3009;43.224;27.976;2023-07-31T04:23:17;99837.88;;;26.41;100.00
5966;BME280;3009;43.224;27.976;2023-07-31T04:25:45;99837.53;;;27.30;94.13
5966;BME280;3009;43.224;27.976;2023-07-31T04:28:14;99838.72;;;26.70;96.47
5966;BME280;3009;43.224;27.976;2023-07-31T04:30:42;99842.84;;;26.79;97.56
5966;BME280;3009;43.224;27.976;2023-07-31T04:33:12;99837.19;;;26.69;98.42
5966;BME280;3009;43.224;27.976;2023-07-31T04:35:46;99847.28;;;27.18;95.38
5966;BME280;3009;43.224;27.976;2023-07-31T04:38:19;99845.00;;;28.62;85.40
5966;BME280;3009;43.224;27.976;2023-07-31T04:40:48;99841.06;;;29.74;78.30
5966;BME280;3009;43.224;27.976;2023-07-31T04:43:17;99843.66;;;30.58;71.74
5966;BME280;3009;43.224;27.976;2023-07-31T04:45:45;99849.56;;;31.16;66.28
5966;BME280;3009;43.224;27.976;2023-07-31T04:48:15;99847.28;;;30.28;70.52
5966;BME280;3009;43.224;27.976;2023-07-31T04:50:45;99856.41;;;28.25;82.95
5966;BME280;3009;43.224;27.976;2023-07-31T04:53:13;99852.31;;;27.07;94.67
5966;BME280;3009;43.224;27.976;2023-07-31T04:55:41;99857.44;;;26.92;97.38
5966;BME280;3009;43.224;27.976;2023-07-31T04:58:10;99861.22;;;27.70;93.38
5966;BME280;3009;43.224;27.976;2023-07-31T05:00:38;99860.34;;;28.98;83.89
5966;BME280;3009;43.224;27.976;2023-07-31T05:03:07;99856.00;;;30.08;76.36
5966;BME280;3009;43.224;27.976;2023-07-31T05:05:38;99866.75;;;31.30;66.99
5966;BME280;3009;43.224;27.976;2023-07-31T05:08:07;99856.38;;;32.10;61.62
5966;BME280;3009;43.224;27.976;2023-07-31T05:10:36;99859.97;;;33.37;55.72
5966;BME280;3009;43.224;27.976;2023-07-31T05:13:04;99862.25;;;33.24;51.09
5966;BME280;3009;43.224;27.976;2023-07-31T05:15:33;99860.13;;;34.29;49.02
5966;BME280;3009;43.224;27.976;2023-07-31T05:18:01;99861.53;;;35.53;43.85
5966;BME280;3009;43.224;27.976;2023-07-31T05:20:30;99859.56;;;35.59;42.87
5966;BME280;3009;43.224;27.976;2023-07-31T05:22:58;99862.72;;;35.46;43.02
5966;BME280;3009;43.224;27.976;2023-07-31T05:25:28;99871.59;;;34.92;46.63
5966;BME280;3009;43.224;27.976;2023-07-31T05:27:57;99863.75;;;35.75;43.58
5966;BME280;3009;43.224;27.976;2023-07-31T05:30:25;99868.44;;;36.33;41.75
5966;BME280;3009;43.224;27.976;2023-07-31T05:32:53;99868.28;;;37.25;39.93
5966;BME280;3009;43.224;27.976;2023-07-31T05:35:22;99864.22;;;36.11;40.82
5966;BME280;3009;43.224;27.976;2023-07-31T05:37:50;99873.66;;;34.97;44.11
5966;BME280;3009;43.224;27.976;2023-07-31T05:40:19;99867.75;;;33.78;48.10
5966;BME280;3009;43.224;27.976;2023-07-31T05:42:49;99878.97;;;32.99;51.69
5966;BME280;3009;43.224;27.976;2023-07-31T05:45:17;99873.84;;;33.82;49.84
5966;BME280;3009;43.224;27.976;2023-07-31T05:47:46;99870.69;;;35.27;45.55
5966;BME280;3009;43.224;27.976;2023-07-31T05:50:14;99875.06;;;34.46;45.90
5966;BME280;3009;43.224;27.976;2023-07-31T05:52:43;99874.34;;;31.90;47.22
5966;BME280;3009;43.224;27.976;2023-07-31T05:55:11;99869.56;;;30.24;51.69
5966;BME280;3009;43.224;27.976;2023-07-31T05:57:40;99863.50;;;29.09;54.84
5966;BME280;3009;43.224;27.976;2023-07-31T06:00:11;99866.28;;;30.16;52.81
5966;BME280;3009;43.224;27.976;2023-07-31T06:02:40;99862.88;;;29.49;55.09
5966;BME280;3009;43.224;27.976;2023-07-31T06:05:08;99869.44;;;29.96;52.87
5966;BME280;3009;43.224;27.976;2023-07-31T06:07:37;99866.34;;;30.26;52.02
5966;BME280;3009;43.224;27.976;2023-07-31T06:10:06;99867.53;;;30.84;50.24
5966;BME280;3009;43.224;27.976;2023-07-31T06:12:35;99864.59;;;30.69;52.25
5966;BME280;3009;43.224;27.976;2023-07-31T06:15:04;99865.78;;;30.40;51.15
5966;BME280;3009;43.224;27.976;2023-07-31T06:17:34;99872.47;;;31.17;49.20
5966;BME280;3009;43.224;27.976;2023-07-31T06:20:04;99880.34;;;32.56;45.39
5966;BME280;3009;43.224;27.976;2023-07-31T06:22:32;99889.03;;;32.73;44.35
5966;BME280;3009;43.224;27.976;2023-07-31T06:25:01;99880.16;;;31.92;46.04
5966;BME280;3009;43.224;27.976;2023-07-31T06:27:29;99883.38;;;31.30;49.03
5966;BME280;3009;43.224;27.976;2023-07-31T06:29:58;99888.44;;;33.08;43.80
5966;BME280;3009;43.224;27.976;2023-07-31T06:32:26;99893.13;;;33.01;43.18
5966;BME280;3009;43.224;27.976;2023-07-31T06:34:56;99896.72;;;32.54;44.33
5966;BME280;3009;43.224;27.976;2023-07-31T06:37:25;99894.75;;;30.95;48.94
5966;BME280;3009;43.224;27.976;2023-07-31T06:39:53;99893.31;;;30.53;51.94
5966;BME280;3009;43.224;27.976;2023-07-31T06:42:21;99891.00;;;30.11;54.07
5966;BME280;3009;43.224;27.976;2023-07-31T06:44:50;99886.44;;;30.67;51.48
5966;BME280;3009;43.224;27.976;2023-07-31T06:47:18;99890.25;;;30.19;52.78
5966;BME280;3009;43.224;27.976;2023-07-31T06:49:47;99891.19;;;29.63;56.57
5966;BME280;3009;43.224;27.976;2023-07-31T06:52:16;99891.88;;;31.07;51.13
5966;BME280;3009;43.224;27.976;2023-07-31T06:55:00;99895.66;;;30.91;51.94
5966;BME280;3009;43.224;27.976;2023-07-31T06:57:29;99897.13;;;31.85;49.53
5966;BME280;3009;43.224;27.976;2023-07-31T06:59:58;99904.09;;;31.80;48.40
5966;BME280;3009;43.224;27.976;2023-07-31T07:02:27;99895.97;;;29.62;53.79
5966;BME280;3009;43.224;27.976;2023-07-31T07:04:55;99905.00;;;28.58;64.53
5966;BME280;3009;43.224;27.976;2023-07-31T07:07:25;99891.25;;;28.19;64.67
5966;BME280;3009;43.224;27.976;2023-07-31T07:09:54;99901.50;;;28.06;66.52
5966;BME280;3009;43.224;27.976;2023-07-31T07:12:22;99908.44;;;27.98;66.87
5966;BME280;3009;43.224;27.976;2023-07-31T07:14:51;99895.16;;;28.83;65.39
5966;BME280;3009;43.224;27.976;2023-07-31T07:17:20;99901.66;;;29.90;59.75
5966;BME280;3009;43.224;27.976;2023-07-31T07:19:49;99898.50;;;30.10;58.65
5966;BME280;3009;43.224;27.976;2023-07-31T07:22:18;99891.31;;;30.53;56.16
5966;BME280;3009;43.224;27.976;2023-07-31T07:24:48;99893.09;;;31.95;50.68
5966;BME280;3009;43.224;27.976;2023-07-31T07:27:16;99887.91;;;31.79;48.87
5966;BME280;3009;43.224;27.976;2023-07-31T07:29:46;99896.69;;;30.57;53.11
5966;BME280;3009;43.224;27.976;2023-07-31T07:32:15;99885.75;;;30.44;55.25
5966;BME280;3009;43.224;27.976;2023-07-31T07:34:44;99889.03;;;30.80;53.58
5966;BME280;3009;43.224;27.976;2023-07-31T07:37:12;99882.91;;;30.85;53.78
5966;BME280;3009;43.224;27.976;2023-07-31T07:39:43;99881.25;;;31.15;51.98
5966;BME280;3009;43.224;27.976;2023-07-31T07:42:14;99893.28;;;31.83;49.15
5966;BME280;3009;43.224;27.976;2023-07-31T07:44:43;99890.66;;;29.77;56.27
5966;BME280;3009;43.224;27.976;2023-07-31T07:47:12;99903.81;;;29.64;59.27
5966;BME280;3009;43.224;27.976;2023-07-31T07:49:42;99902.56;;;29.21;66.69
5966;BME280;3009;43.224;27.976;2023-07-31T07:52:18;99896.69;;;30.48;65.26
5966;BME280;3009;43.224;27.976;2023-07-31T07:54:46;99892.41;;;30.65;61.22
5966;BME280;3009;43.224;27.976;2023-07-31T07:57:16;99890.13;;;30.91;60.36
5966;BME280;3009;43.224;27.976;2023-07-31T07:59:45;99896.72;;;32.20;58.26
5966;BME280;3009;43.224;27.976;2023-07-31T08:02:13;99897.06;;;32.04;57.45
5966;BME280;3009;43.224;27.976;2023-07-31T08:04:42;99895.09;;;31.24;55.75
5966;BME280;3009;43.224;27.976;2023-07-31T08:07:11;99894.72;;;30.67;58.33
5966;BME280;3009;43.224;27.976;2023-07-31T08:09:40;99900.53;;;30.50;61.10
5966;BME280;3009;43.224;27.976;2023-07-31T08:12:08;99903.13;;;30.45;63.81
5966;BME280;3009;43.224;27.976;2023-07-31T08:14:38;99906.09;;;29.87;66.08
5966;BME280;3009;43.224;27.976;2023-07-31T08:17:07;99909.94;;;29.90;67.47
5966;BME280;3009;43.224;27.976;2023-07-31T08:19:36;99909.94;;;29.68;67.73
5966;BME280;3009;43.224;27.976;2023-07-31T08:22:04;99900.31;;;29.95;65.95
5966;BME280;3009;43.224;27.976;2023-07-31T08:24:33;99899.22;;;29.70;66.61
5966;BME280;3009;43.224;27.976;2023-07-31T08:27:01;99902.44;;;29.24;66.03
5966;BME280;3009;43.224;27.976;2023-07-31T08:29:30;99905.44;;;29.17;68.75
5966;BME280;3009;43.224;27.976;2023-07-31T08:32:00;99908.03;;;29.56;65.01
5966;BME280;3009;43.224;27.976;2023-07-31T08:34:28;99914.53;;;29.40;64.93
5966;BME280;3009;43.224;27.976;2023-07-31T08:36:57;99905.34;;;29.21;63.57
5966;BME280;3009;43.224;27.976;2023-07-31T08:39:25;99909.78;;;29.05;63.44
5966;BME280;3009;43.224;27.976;2023-07-31T08:41:58;99909.88;;;29.02;64.40
5966;BME280;3009;43.224;27.976;2023-07-31T08:44:27;99914.72;;;28.75;65.57
5966;BME280;3009;43.224;27.976;2023-07-31T08:46:55;99910.84;;;28.86;64.84
5966;BME280;3009;43.224;27.976;2023-07-31T08:49:26;99909.38;;;28.94;64.58
5966;BME280;3009;43.224;27.976;2023-07-31T08:51:55;99907.50;;;28.91;68.76
5966;BME280;3009;43.224;27.976;2023-07-31T08:54:25;99912.38;;;28.87;68.71
5966;BME280;3009;43.224;27.976;2023-07-31T08:56:58;99921.44;;;28.87;65.75
5966;BME280;3009;43.224;27.976;2023-07-31T08:59:29;99911.94;;;28.88;65.34
5966;BME280;3009;43.224;27.976;2023-07-31T09:02:03;99904.78;;;29.13;64.59
5966;BME280;3009;43.224;27.976;2023-07-31T09:04:35;99909.66;;;29.09;66.75
5966;BME280;3009;43.224;27.976;2023-07-31T09:07:04;99915.03;;;28.77;67.09
5966;BME280;3009;43.224;27.976;2023-07-31T09:09:33;99915.38;;;28.67;67.42
5966;BME280;3009;43.224;27.976;2023-07-31T09:12:02;99911.06;;;28.40;68.83
5966;BME280;3009;43.224;27.976;2023-07-31T09:14:32;99909.22;;;28.24;72.54
5966;BME280;3009;43.224;27.976;2023-07-31T09:17:01;99921.47;;;28.10;75.98
5966;BME280;3009;43.224;27.976;2023-07-31T09:19:34;99918.03;;;27.64;76.51
5966;BME280;3009;43.224;27.976;2023-07-31T09:22:04;99930.38;;;27.13;78.91
5966;BME280;3009;43.224;27.976;2023-07-31T09:24:34;99925.25;;;27.45;80.56
5966;BME280;3009;43.224;27.976;2023-07-31T09:27:03;99922.09;;;27.59;78.61
5966;BME280;3009;43.224;27.976;2023-07-31T09:29:31;99935.13;;;27.71;79.08
5966;BME280;3009;43.224;27.976;2023-07-31T09:32:00;99934.50;;;27.80;79.10
5966;BME280;3009;43.224;27.976;2023-07-31T09:34:29;99933.72;;;27.80;75.76
5966;BME280;3009;43.224;27.976;2023-07-31T09:37:01;99935.31;;;27.64;79.16
5966;BME280;3009;43.224;27.976;2023-07-31T09:39:30;99938.88;;;27.65;77.03
5966;BME280;3009;43.224;27.976;2023-07-31T09:41:59;99930.94;;;27.67;77.51
5966;BME280;3009;43.224;27.976;2023-07-31T09:44:45;99942.78;;;27.93;78.52
5966;BME280;3009;43.224;27.976;2023-07-31T09:47:21;99932.59;;;28.45;75.00
5966;BME280;3009;43.224;27.976;2023-07-31T09:49:52;99920.47;;;29.03;70.76
5966;BME280;3009;43.224;27.976;2023-07-31T09:52:26;99912.22;;;29.38;68.04
5966;BME280;3009;43.224;27.976;2023-07-31T09:54:55;99920.50;;;29.60;66.62
5966;BME280;3009;43.224;27.976;2023-07-31T09:57:23;99915.53;;;29.77;65.45
5966;BME280;3009;43.224;27.976;2023-07-31T09:59:52;99917.16;;;29.87;65.42
5966;BME280;3009;43.224;27.976;2023-07-31T10:02:23;99909.88;;;30.03;66.68
5966;BME280;3009;43.224;27.976;2023-07-31T10:04:51;99907.91;;;29.59;68.56
5966;BME280;3009;43.224;27.976;2023-07-31T10:07:26;99908.63;;;29.50;69.37
5966;BME280;3009;43.224;27.976;2023-07-31T10:09:59;99912.34;;;29.34;71.96
5966;BME280;3009;43.224;27.976;2023-07-31T10:12:31;99910.38;;;28.87;76.18
5966;BME280;3009;43.224;27.976;2023-07-31T10:15:02;99907.47;;;28.30;81.36
5966;BME280;3009;43.224;27.976;2023-07-31T10:17:31;99907.25;;;28.63;78.33
5966;BME280;3009;43.224;27.976;2023-07-31T10:20:02;99917.81;;;28.64;77.04
5966;BME280;3009;43.224;27.976;2023-07-31T10:22:33;99912.19;;;28.55;83.48
5966;BME280;3009;43.224;27.976;2023-07-31T10:25:02;99919.56;;;28.45;81.87
5966;BME280;3009;43.224;27.976;2023-07-31T10:27:30;99909.66;;;28.35;79.89
5966;BME280;3009;43.224;27.976;2023-07-31T10:29:59;99915.06;;;28.13;82.92
5966;BME280;3009;43.224;27.976;2023-07-31T10:32:35;99907.78;;;28.19;83.58
5966;BME280;3009;43.224;27.976;2023-07-31T10:35:12;99913.97;;;28.23;82.02
5966;BME280;3009;43.224;27.976;2023-07-31T10:37:43;99916.28;;;28.25;81.22
5966;BME280;3009;43.224;27.976;2023-07-31T10:40:13;99915.03;;;28.00;84.72
5966;BME280;3009;43.224;27.976;2023-07-31T10:42:46;99913.63;;;28.34;86.74
5966;BME280;3009;43.224;27.976;2023-07-31T10:45:25;99908.28;;;28.91;82.21
5966;BME280;3009;43.224;27.976;2023-07-31T10:47:58;99906.09;;;29.21;79.85
5966;BME280;3009;43.224;27.976;2023-07-31T10:50:30;99906.13;;;28.73;80.44
5966;BME280;3009;43.224;27.976;2023-07-31T10:53:01;99900.69;;;29.17;73.84
5966;BME280;3009;43.224;27.976;2023-07-31T10:55:32;99897.19;;;29.39;69.59
5966;BME280;3009;43.224;27.976;2023-07-31T10:58:08;99896.94;;;29.11;72.65
5966;BME280;3009;43.224;27.976;2023-07-31T11:00:38;99889.59;;;29.30;65.72
5966;BME280;3009;43.224;27.976;2023-07-31T11:03:09;99901.69;;;29.46;66.44
5966;BME280;3009;43.224;27.976;2023-07-31T11:08:24;99890.34;;;28.48;66.49
5966;BME280;3009;43.224;27.976;2023-07-31T11:11:05;99885.94;;;28.63;64.59
5966;BME280;3009;43.224;27.976;2023-07-31T11:13:40;99881.84;;;28.42;66.73
5966;BME280;3009;43.224;27.976;2023-07-31T11:16:08;99885.75;;;28.19;66.16
5966;BME280;3009;43.224;27.976;2023-07-31T11:18:39;99883.91;;;27.87;66.22
5966;BME280;3009;43.224;27.976;2023-07-31T11:21:08;99877.44;;;27.93;67.21
5966;BME280;3009;43.224;27.976;2023-07-31T11:23:38;99883.44;;;28.18;66.73
5966;BME280;3009;43.224;27.976;2023-07-31T11:26:07;99870.16;;;27.87;66.94
5966;BME280;3009;43.224;27.976;2023-07-31T11:28:35;99869.97;;;27.52;70.48
5966;BME280;3009;43.224;27.976;2023-07-31T11:31:09;99877.44;;;27.22;71.57
5966;BME280;3009;43.224;27.976;2023-07-31T11:33:39;99875.81;;;27.24;73.50
5966;BME280;3009;43.224;27.976;2023-07-31T11:36:14;99877.16;;;27.49;73.14
5966;BME280;3009;43.224;27.976;2023-07-31T11:38:44;99870.09;;;28.16;69.23
5966;BME280;3009;43.224;27.976;2023-07-31T11:41:14;99860.19;;;28.19;68.27
5966;BME280;3009;43.224;27.976;2023-07-31T11:43:43;99863.13;;;28.24;68.16
5966;BME280;3009;43.224;27.976;2023-07-31T11:46:11;99865.22;;;27.39;73.27
5966;BME280;3009;43.224;27.976;2023-07-31T11:48:42;99863.88;;;27.73;70.74
5966;BME280;3009;43.224;27.976;2023-07-31T11:51:13;99873.25;;;27.89;69.63
5966;BME280;3009;43.224;27.976;2023-07-31T11:53:47;99877.72;;;27.57;69.33
5966;BME280;3009;43.224;27.976;2023-07-31T11:56:19;99865.84;;;26.85;71.89
5966;BME280;3009;43.224;27.976;2023-07-31T11:58:56;99872.81;;;27.19;74.22
5966;BME280;3009;43.224;27.976;2023-07-31T12:01:26;99871.50;;;27.23;73.39
5966;BME280;3009;43.224;27.976;2023-07-31T12:03:56;99876.75;;;27.76;70.62
5966;BME280;3009;43.224;27.976;2023-07-31T12:06:33;99867.22;;;28.07;72.60
5966;BME280;3009;43.224;27.976;2023-07-31T12:09:04;99875.59;;;28.29;70.42
5966;BME280;3009;43.224;27.976;2023-07-31T12:11:42;99879.03;;;27.52;70.26
5966;BME280;3009;43.224;27.976;2023-07-31T12:14:19;99868.81;;;27.79;70.49
5966;BME280;3009;43.224;27.976;2023-07-31T12:16:48;99876.13;;;27.14;75.67
5966;BME280;3009;43.224;27.976;2023-07-31T12:19:21;99873.69;;;27.16;75.60
5966;BME280;3009;43.224;27.976;2023-07-31T12:21:49;99871.53;;;27.53;75.12
5966;BME280;3009;43.224;27.976;2023-07-31T12:24:20;99858.97;;;27.52;74.85
5966;BME280;3009;43.224;27.976;2023-07-31T12:26:49;99852.09;;;26.35;81.10
5966;BME280;3009;43.224;27.976;2023-07-31T12:29:18;99843.88;;;26.35;82.53
5966;BME280;3009;43.224;27.976;2023-07-31T12:31:46;99847.28;;;26.07;83.45
5966;BME280;3009;43.224;27.976;2023-07-31T12:34:16;99853.06;;;26.29;82.62
5966;BME280;3009;43.224;27.976;2023-07-31T12:36:45;99855.44;;;26.10;83.76
5966;BME280;3009;43.224;27.976;2023-07-31T12:39:15;99853.13;;;25.52;89.84
5966;BME280;3009;43.224;27.976;2023-07-31T12:41:45;99843.53;;;25.60;88.77
5966;BME280;3009;43.224;27.976;2023-07-31T12:44:13;99844.25;;;25.64;90.60
5966;BME280;3009;43.224;27.976;2023-07-31T12:46:42;99839.63;;;25.41;95.17
5966;BME280;3009;43.224;27.976;2023-07-31T12:49:10;99842.28;;;25.45;94.16
5966;BME280;3009;43.224;27.976;2023-07-31T12:51:39;99837.03;;;25.71;95.84
5966;BME280;3009;43.224;27.976;2023-07-31T12:54:07;99832.16;;;25.42;98.12
5966;BME280;3009;43.224;27.976;2023-07-31T12:56:36;99841.16;;;25.62;98.39
5966;BME280;3009;43.224;27.976;2023-07-31T12:59:06;99840.69;;;25.04;100.00
5966;BME280;3009;43.224;27.976;2023-07-31T13:01:34;99837.19;;;25.23;100.00
5966;BME280;3009;43.224;27.976;2023-07-31T13:04:03;99839.59;;;25.21;100.00
5966;BME280;3009;43.224;27.976;2023-07-31T13:06:32;99849.31;;;25.26;100.00
5966;BME280;3009;43.224;27.976;2023-07-31T13:09:00;99845.88;;;25.42;100.00
5966;BME280;3009;43.224;27.976;2023-07-31T13:11:29;99839.06;;;25.87;96.14
5966;BME280;3009;43.224;27.976;2023-07-31T13:13:57;99834.09;;;25.98;93.33
5966;BME280;3009;43.224;27.976;2023-07-31T13:16:27;99833.19;;;25.48;100.00
5966;BME280;3009;43.224;27.976;2023-07-31T13:18:56;99823.78;;;25.86;96.53
5966;BME280;3009;43.224;27.976;2023-07-31T13:21:24;99824.03;;;25.75;97.10
5966;BME280;3009;43.224;27.976;2023-07-31T13:23:52;99821.50;;;25.64;97.35